sensor_id;sensor_type;location;lat;lon;timestamp;P1;durP1;ratioP1;P2;durP2;ratioP2
15624;SDS011;7912;51.376;6.126;2023-04-01T00:01:20;3.40;;;1.33;;
15624;SDS011;7912;51.376;6.126;2023-04-01T00:03:49;3.43;;;1.40;;
15624;SDS011;7912;51.376;6.126;2023-04-01T00:06:18;2.70;;;1.30;;
15624;SDS011;7912;51.376;6.126;2023-04-01T00:08:55;2.17;;;1.03;;
15624;SDS011;7912;51.376;6.126;2023-04-01T00:11:25;2.50;;;1.40;;
15624;SDS011;7912;51.376;6.126;2023-04-01T00:14:05;3.37;;;1.13;;
15624;SDS011;7912;51.376;6.126;2023-04-01T00:16:43;2.83;;;1.40;;
15624;SDS011;7912;51.376;6.126;2023-04-01T00:19:18;2.40;;;1.30;;
15624;SDS011;7912;51.376;6.126;2023-04-01T00:22:01;3.17;;;1.20;;
15624;SDS011;7912;51.376;6.126;2023-04-01T00:24:34;2.87;;;1.43;;
15624;SDS011;7912;51.376;6.126;2023-04-01T00:27:03;1.70;;;1.20;;
15624;SDS011;7912;51.376;6.126;2023-04-01T00:29:32;1.93;;;1.17;;
15624;SDS011;7912;51.376;6.126;2023-04-01T00:32:01;2.53;;;1.23;;
15624;SDS011;7912;51.376;6.126;2023-04-01T00:34:35;1.27;;;0.90;;
15624;SDS011;7912;51.376;6.126;2023-04-01T00:37:05;1.37;;;0.97;;
15624;SDS011;7912;51.376;6.126;2023-04-01T00:39:43;2.43;;;1.10;;
15624;SDS011;7912;51.376;6.126;2023-04-01T00:42:20;2.67;;;1.10;;
15624;SDS011;7912;51.376;6.126;2023-04-01T00:48:20;1.23;;;0.70;;
15624;SDS011;7912;51.376;6.126;2023-04-01T00:51:06;1.97;;;0.90;;
15624;SDS011;7912;51.376;6.126;2023-04-01T00:53:40;2.37;;;1.03;;
15624;SDS011;7912;51.376;6.126;2023-04-01T00:56:35;1.17;;;0.90;;
15624;SDS011;7912;51.376;6.126;2023-04-01T00:59:11;1.00;;;0.90;;
15624;SDS011;7912;51.376;6.126;2023-04-01T01:01:50;2.33;;;0.97;;
15624;SDS011;7912;51.376;6.126;2023-04-01T01:04:23;1.43;;;0.97;;
15624;SDS011;7912;51.376;6.126;2023-04-01T01:07:03;1.20;;;0.90;;
15624;SDS011;7912;51.376;6.126;2023-04-01T01:09:48;1.43;;;0.90;;
15624;SDS011;7912;51.376;6.126;2023-04-01T01:15:32;2.17;;;1.03;;
15624;SDS011;7912;51.376;6.126;2023-04-01T01:25:06;1.73;;;0.73;;
15624;SDS011;7912;51.376;6.126;2023-04-01T01:27:56;1.00;;;0.80;;
15624;SDS011;7912;51.376;6.126;2023-04-01T01:36:31;1.03;;;0.70;;
15624;SDS011;7912;51.376;6.126;2023-04-01T01:39:12;0.80;;;0.80;;
15624;SDS011;7912;51.376;6.126;2023-04-01T01:41:48;1.87;;;0.87;;
15624;SDS011;7912;51.376;6.126;2023-04-01T01:44:16;1.33;;;0.80;;
15624;SDS011;7912;51.376;6.126;2023-04-01T01:46:46;1.00;;;0.70;;
15624;SDS011;7912;51.376;6.126;2023-04-01T01:49:16;2.53;;;1.00;;
15624;SDS011;7912;51.376;6.126;2023-04-01T01:51:46;0.93;;;0.70;;
15624;SDS011;7912;51.376;6.126;2023-04-01T01:54:15;2.20;;;0.90;;
15624;SDS011;7912;51.376;6.126;2023-04-01T01:56:45;0.90;;;0.70;;
15624;SDS011;7912;51.376;6.126;2023-04-01T01:59:19;1.53;;;0.70;;
15624;SDS011;7912;51.376;6.126;2023-04-01T02:01:51;1.73;;;0.80;;
15624;SDS011;7912;51.376;6.126;2023-04-01T02:04:23;0.60;;;0.60;;
15624;SDS011;7912;51.376;6.126;2023-04-01T02:06:58;1.33;;;0.73;;
15624;SDS011;7912;51.376;6.126;2023-04-01T02:09:31;1.17;;;0.77;;
15624;SDS011;7912;51.376;6.126;2023-04-01T02:12:01;1.30;;;0.90;;
15624;SDS011;7912;51.376;6.126;2023-04-01T02:17:15;1.43;;;0.93;;
15624;SDS011;7912;51.376;6.126;2023-04-01T02:19:53;1.50;;;1.10;;
15624;SDS011;7912;51.376;6.126;2023-04-01T02:22:36;1.00;;;0.90;;
15624;SDS011;7912;51.376;6.126;2023-04-01T02:25:10;1.30;;;0.93;;
15624;SDS011;7912;51.376;6.126;2023-04-01T02:27:42;1.33;;;1.10;;
15624;SDS011;7912;51.376;6.126;2023-04-01T02:30:13;1.03;;;0.90;;
15624;SDS011;7912;51.376;6.126;2023-04-01T02:32:42;1.30;;;1.20;;
15624;SDS011;7912;51.376;6.126;2023-04-01T02:35:12;1.30;;;1.20;;
15624;SDS011;7912;51.376;6.126;2023-04-01T02:37:43;1.47;;;1.10;;
15624;SDS011;7912;51.376;6.126;2023-04-01T02:40:15;1.20;;;1.10;;
15624;SDS011;7912;51.376;6.126;2023-04-01T02:42:43;1.20;;;1.10;;
15624;SDS011;7912;51.376;6.126;2023-04-01T02:45:12;1.50;;;1.20;;
15624;SDS011;7912;51.376;6.126;2023-04-01T02:47:40;1.20;;;1.10;;
15624;SDS011;7912;51.376;6.126;2023-04-01T02:50:08;2.10;;;1.20;;
15624;SDS011;7912;51.376;6.126;2023-04-01T02:52:36;1.67;;;1.20;;
15624;SDS011;7912;51.376;6.126;2023-04-01T02:55:04;2.40;;;1.60;;
15624;SDS011;7912;51.376;6.126;2023-04-01T02:57:33;1.50;;;1.40;;
15624;SDS011;7912;51.376;6.126;2023-04-01T03:02:48;1.80;;;1.50;;
15624;SDS011;7912;51.376;6.126;2023-04-01T03:05:16;1.50;;;1.40;;
15624;SDS011;7912;51.376;6.126;2023-04-01T03:07:43;1.40;;;1.30;;
15624;SDS011;7912;51.376;6.126;2023-04-01T03:10:12;1.53;;;1.43;;
15624;SDS011;7912;51.376;6.126;2023-04-01T03:12:39;1.97;;;1.60;;
15624;SDS011;7912;51.376;6.126;2023-04-01T03:15:09;1.50;;;1.40;;
15624;SDS011;7912;51.376;6.126;2023-04-01T03:17:39;1.93;;;1.40;;
15624;SDS011;7912;51.376;6.126;2023-04-01T03:20:09;1.53;;;1.30;;
15624;SDS011;7912;51.376;6.126;2023-04-01T03:22:38;1.60;;;1.50;;
15624;SDS011;7912;51.376;6.126;2023-04-01T03:25:08;1.77;;;1.50;;
15624;SDS011;7912;51.376;6.126;2023-04-01T03:27:37;2.53;;;1.50;;
15624;SDS011;7912;51.376;6.126;2023-04-01T03:30:05;1.30;;;1.20;;
15624;SDS011;7912;51.376;6.126;2023-04-01T03:32:33;1.67;;;1.40;;
15624;SDS011;7912;51.376;6.126;2023-04-01T03:35:01;1.50;;;1.30;;
15624;SDS011;7912;51.376;6.126;2023-04-01T03:37:28;1.60;;;1.40;;
15624;SDS011;7912;51.376;6.126;2023-04-01T03:39:56;1.50;;;1.40;;
15624;SDS011;7912;51.376;6.126;2023-04-01T03:42:24;2.00;;;1.80;;
15624;SDS011;7912;51.376;6.126;2023-04-01T03:44:52;2.07;;;1.90;;
15624;SDS011;7912;51.376;6.126;2023-04-01T03:47:19;1.90;;;1.80;;
15624;SDS011;7912;51.376;6.126;2023-04-01T03:49:47;2.47;;;2.10;;
15624;SDS011;7912;51.376;6.126;2023-04-01T03:52:17;3.37;;;3.07;;
15624;SDS011;7912;51.376;6.126;2023-04-01T03:54:52;3.10;;;2.13;;
15624;SDS011;7912;51.376;6.126;2023-04-01T03:57:20;2.30;;;2.10;;
15624;SDS011;7912;51.376;6.126;2023-04-01T03:59:48;2.50;;;1.87;;
15624;SDS011;7912;51.376;6.126;2023-04-01T04:02:15;2.20;;;2.10;;
15624;SDS011;7912;51.376;6.126;2023-04-01T04:04:44;2.40;;;2.20;;
15624;SDS011;7912;51.376;6.126;2023-04-01T04:07:13;3.33;;;2.20;;
15624;SDS011;7912;51.376;6.126;2023-04-01T04:09:40;2.70;;;2.20;;
15624;SDS011;7912;51.376;6.126;2023-04-01T04:12:08;2.53;;;2.13;;
15624;SDS011;7912;51.376;6.126;2023-04-01T04:14:35;1.93;;;1.83;;
15624;SDS011;7912;51.376;6.126;2023-04-01T04:17:03;2.20;;;2.07;;
15624;SDS011;7912;51.376;6.126;2023-04-01T04:19:34;2.00;;;1.83;;
15624;SDS011;7912;51.376;6.126;2023-04-01T04:22:01;2.53;;;2.20;;
15624;SDS011;7912;51.376;6.126;2023-04-01T04:24:28;2.30;;;2.10;;
15624;SDS011;7912;51.376;6.126;2023-04-01T04:26:56;2.30;;;2.20;;
15624;SDS011;7912;51.376;6.126;2023-04-01T04:29:23;2.90;;;2.30;;
15624;SDS011;7912;51.376;6.126;2023-04-01T04:31:51;2.77;;;2.33;;
15624;SDS011;7912;51.376;6.126;2023-04-01T04:34:18;2.60;;;2.40;;
15624;SDS011;7912;51.376;6.126;2023-04-01T04:36:46;2.67;;;2.47;;
15624;SDS011;7912;51.376;6.126;2023-04-01T04:39:13;3.77;;;2.40;;
15624;SDS011;7912;51.376;6.126;2023-04-01T04:41:41;2.57;;;2.37;;
15624;SDS011;7912;51.376;6.126;2023-04-01T04:44:10;2.63;;;2.43;;
15624;SDS011;7912;51.376;6.126;2023-04-01T04:46:37;2.73;;;2.53;;
15624;SDS011;7912;51.376;6.126;2023-04-01T04:49:06;3.00;;;2.80;;
15624;SDS011;7912;51.376;6.126;2023-04-01T04:51:33;3.27;;;2.73;;
15624;SDS011;7912;51.376;6.126;2023-04-01T04:54:08;3.23;;;3.00;;
15624;SDS011;7912;51.376;6.126;2023-04-01T04:56:36;3.90;;;3.10;;
15624;SDS011;7912;51.376;6.126;2023-04-01T04:59:04;3.60;;;3.30;;
15624;SDS011;7912;51.376;6.126;2023-04-01T05:01:32;3.90;;;3.53;;
15624;SDS011;7912;51.376;6.126;2023-04-01T05:04:00;3.97;;;3.67;;
15624;SDS011;7912;51.376;6.126;2023-04-01T05:06:27;3.90;;;3.60;;
15624;SDS011;7912;51.376;6.126;2023-04-01T05:08:56;4.40;;;4.10;;
15624;SDS011;7912;51.376;6.126;2023-04-01T05:11:23;3.73;;;3.53;;
15624;SDS011;7912;51.376;6.126;2023-04-01T05:13:52;4.37;;;4.00;;
15624;SDS011;7912;51.376;6.126;2023-04-01T05:16:20;4.60;;;4.07;;
15624;SDS011;7912;51.376;6.126;2023-04-01T05:18:48;4.40;;;4.10;;
15624;SDS011;7912;51.376;6.126;2023-04-01T05:21:15;4.90;;;4.50;;
15624;SDS011;7912;51.376;6.126;2023-04-01T05:23:43;4.80;;;4.40;;
15624;SDS011;7912;51.376;6.126;2023-04-01T05:26:12;4.80;;;4.40;;
15624;SDS011;7912;51.376;6.126;2023-04-01T05:28:41;4.90;;;4.60;;
15624;SDS011;7912;51.376;6.126;2023-04-01T05:31:09;4.90;;;4.60;;
15624;SDS011;7912;51.376;6.126;2023-04-01T05:33:37;5.13;;;4.63;;
15624;SDS011;7912;51.376;6.126;2023-04-01T05:36:12;5.33;;;4.83;;
15624;SDS011;7912;51.376;6.126;2023-04-01T05:38:43;4.90;;;4.50;;
15624;SDS011;7912;51.376;6.126;2023-04-01T05:41:12;4.87;;;4.50;;
15624;SDS011;7912;51.376;6.126;2023-04-01T05:43:41;4.77;;;4.37;;
15624;SDS011;7912;51.376;6.126;2023-04-01T05:46:09;5.90;;;5.40;;
15624;SDS011;7912;51.376;6.126;2023-04-01T05:48:37;5.70;;;5.23;;
15624;SDS011;7912;51.376;6.126;2023-04-01T05:51:05;5.53;;;5.13;;
15624;SDS011;7912;51.376;6.126;2023-04-01T05:53:32;5.00;;;4.60;;
15624;SDS011;7912;51.376;6.126;2023-04-01T05:56:03;5.20;;;4.80;;
15624;SDS011;7912;51.376;6.126;2023-04-01T05:58:32;5.33;;;4.83;;
15624;SDS011;7912;51.376;6.126;2023-04-01T06:01:01;5.00;;;4.60;;
15624;SDS011;7912;51.376;6.126;2023-04-01T06:03:41;5.10;;;4.70;;
15624;SDS011;7912;51.376;6.126;2023-04-01T06:06:16;5.07;;;4.67;;
15624;SDS011;7912;51.376;6.126;2023-04-01T06:08:54;5.10;;;4.60;;
15624;SDS011;7912;51.376;6.126;2023-04-01T06:11:35;5.30;;;4.80;;
15624;SDS011;7912;51.376;6.126;2023-04-01T06:20:43;5.67;;;5.17;;
15624;SDS011;7912;51.376;6.126;2023-04-01T06:27:00;6.20;;;5.70;;
15624;SDS011;7912;51.376;6.126;2023-04-01T06:33:04;5.80;;;5.37;;
15624;SDS011;7912;51.376;6.126;2023-04-01T06:50:25;5.23;;;4.83;;
15624;SDS011;7912;51.376;6.126;2023-04-01T06:56:22;5.43;;;5.03;;
15624;SDS011;7912;51.376;6.126;2023-04-01T06:59:15;4.93;;;4.53;;
15624;SDS011;7912;51.376;6.126;2023-04-01T07:01:52;4.90;;;4.50;;
15624;SDS011;7912;51.376;6.126;2023-04-01T07:04:33;4.27;;;3.97;;
15624;SDS011;7912;51.376;6.126;2023-04-01T07:13:18;3.50;;;3.30;;
15624;SDS011;7912;51.376;6.126;2023-04-01T07:19:12;3.47;;;3.17;;
15624;SDS011;7912;51.376;6.126;2023-04-01T07:28:30;3.10;;;2.90;;
15624;SDS011;7912;51.376;6.126;2023-04-01T07:31:16;3.40;;;3.17;;
15624;SDS011;7912;51.376;6.126;2023-04-01T07:34:17;3.23;;;3.03;;
15624;SDS011;7912;51.376;6.126;2023-04-01T07:45:42;2.97;;;2.77;;
15624;SDS011;7912;51.376;6.126;2023-04-01T07:49:30;3.03;;;2.83;;
15624;SDS011;7912;51.376;6.126;2023-04-01T08:07:13;4.57;;;4.10;;
15624;SDS011;7912;51.376;6.126;2023-04-01T08:09:46;4.77;;;4.37;;
15624;SDS011;7912;51.376;6.126;2023-04-01T08:15:22;5.13;;;4.63;;
15624;SDS011;7912;51.376;6.126;2023-04-01T08:23:31;5.53;;;5.03;;
15624;SDS011;7912;51.376;6.126;2023-04-01T08:26:10;6.40;;;5.90;;
15624;SDS011;7912;51.376;6.126;2023-04-01T08:29:08;6.50;;;5.90;;
15624;SDS011;7912;51.376;6.126;2023-04-01T08:34:36;6.77;;;6.17;;
15624;SDS011;7912;51.376;6.126;2023-04-01T08:37:11;6.90;;;6.30;;
15624;SDS011;7912;51.376;6.126;2023-04-01T08:39:59;7.33;;;6.67;;
15624;SDS011;7912;51.376;6.126;2023-04-01T08:46:13;7.47;;;6.77;;
15624;SDS011;7912;51.376;6.126;2023-04-01T08:52:36;7.70;;;7.00;;
15624;SDS011;7912;51.376;6.126;2023-04-01T08:58:06;8.03;;;7.23;;
15624;SDS011;7912;51.376;6.126;2023-04-01T09:01:35;8.70;;;7.90;;
15624;SDS011;7912;51.376;6.126;2023-04-01T09:11:28;9.87;;;8.87;;
15624;SDS011;7912;51.376;6.126;2023-04-01T09:17:36;9.77;;;8.73;;
15624;SDS011;7912;51.376;6.126;2023-04-01T09:35:33;11.13;;;10.03;;
15624;SDS011;7912;51.376;6.126;2023-04-01T09:47:01;11.37;;;10.17;;
15624;SDS011;7912;51.376;6.126;2023-04-01T09:49:50;13.40;;;10.73;;
15624;SDS011;7912;51.376;6.126;2023-04-01T09:59:24;13.20;;;10.93;;
15624;SDS011;7912;51.376;6.126;2023-04-01T10:08:37;13.13;;;10.30;;
15624;SDS011;7912;51.376;6.126;2023-04-01T10:20:59;11.13;;;10.00;;
15624;SDS011;7912;51.376;6.126;2023-04-01T10:48:53;8.03;;;7.23;;
15624;SDS011;7912;51.376;6.126;2023-04-01T10:52:20;7.40;;;6.70;;
15624;SDS011;7912;51.376;6.126;2023-04-01T10:55:37;6.37;;;5.77;;
15624;SDS011;7912;51.376;6.126;2023-04-01T11:04:04;6.40;;;4.97;;
15624;SDS011;7912;51.376;6.126;2023-04-01T11:36:48;8.03;;;7.23;;
15624;SDS011;7912;51.376;6.126;2023-04-01T11:43:18;7.87;;;7.07;;
15624;SDS011;7912;51.376;6.126;2023-04-01T11:46:16;8.17;;;7.37;;
15624;SDS011;7912;51.376;6.126;2023-04-01T11:49:24;8.20;;;7.40;;
15624;SDS011;7912;51.376;6.126;2023-04-01T11:55:14;8.43;;;7.37;;
15624;SDS011;7912;51.376;6.126;2023-04-01T12:06:58;7.80;;;6.97;;
15624;SDS011;7912;51.376;6.126;2023-04-01T12:13:07;6.77;;;6.17;;
15624;SDS011;7912;51.376;6.126;2023-04-01T12:20:22;6.70;;;5.97;;
15624;SDS011;7912;51.376;6.126;2023-04-01T12:26:43;6.80;;;6.10;;
15624;SDS011;7912;51.376;6.126;2023-04-01T12:30:02;6.03;;;5.23;;
15624;SDS011;7912;51.376;6.126;2023-04-01T12:46:13;6.00;;;5.47;;
15624;SDS011;7912;51.376;6.126;2023-04-01T12:49:05;5.57;;;5.07;;
15624;SDS011;7912;51.376;6.126;2023-04-01T12:57:43;5.07;;;4.57;;
15624;SDS011;7912;51.376;6.126;2023-04-01T13:03:48;5.13;;;4.63;;
15624;SDS011;7912;51.376;6.126;2023-04-01T13:23:29;4.40;;;4.00;;
15624;SDS011;7912;51.376;6.126;2023-04-01T13:27:39;4.80;;;4.37;;
15624;SDS011;7912;51.376;6.126;2023-04-01T13:29:43;4.07;;;3.77;;
15624;SDS011;7912;51.376;6.126;2023-04-01T13:35:48;3.90;;;3.40;;
15624;SDS011;7912;51.376;6.126;2023-04-01T13:42:58;3.00;;;2.70;;
15624;SDS011;7912;51.376;6.126;2023-04-01T13:48:36;2.90;;;2.70;;
15624;SDS011;7912;51.376;6.126;2023-04-01T14:06:49;2.90;;;2.70;;
15624;SDS011;7912;51.376;6.126;2023-04-01T14:15:23;3.17;;;2.87;;
15624;SDS011;7912;51.376;6.126;2023-04-01T14:18:33;4.13;;;3.60;;
15624;SDS011;7912;51.376;6.126;2023-04-01T14:21:35;4.20;;;3.70;;
15624;SDS011;7912;51.376;6.126;2023-04-01T14:49:53;2.70;;;2.50;;
15624;SDS011;7912;51.376;6.126;2023-04-01T14:52:46;2.80;;;2.60;;
15624;SDS011;7912;51.376;6.126;2023-04-01T15:23:49;4.07;;;3.77;;
15624;SDS011;7912;51.376;6.126;2023-04-01T15:41:34;3.63;;;3.33;;
15624;SDS011;7912;51.376;6.126;2023-04-01T15:47:32;3.50;;;3.20;;
15624;SDS011;7912;51.376;6.126;2023-04-01T15:54:00;3.67;;;3.37;;
15624;SDS011;7912;51.376;6.126;2023-04-01T16:03:23;3.93;;;3.60;;
15624;SDS011;7912;51.376;6.126;2023-04-01T16:06:38;3.30;;;3.10;;
15624;SDS011;7912;51.376;6.126;2023-04-01T16:09:52;2.83;;;2.60;;
15624;SDS011;7912;51.376;6.126;2023-04-01T16:18:49;2.90;;;2.70;;
15624;SDS011;7912;51.376;6.126;2023-04-01T16:21:50;3.80;;;3.33;;
15624;SDS011;7912;51.376;6.126;2023-04-01T16:24:39;4.53;;;4.13;;
15624;SDS011;7912;51.376;6.126;2023-04-01T16:28:10;3.63;;;3.33;;
15624;SDS011;7912;51.376;6.126;2023-04-01T16:33:52;4.10;;;3.67;;
15624;SDS011;7912;51.376;6.126;2023-04-01T16:43:17;3.80;;;3.50;;
15624;SDS011;7912;51.376;6.126;2023-04-01T16:49:27;3.93;;;3.63;;
15624;SDS011;7912;51.376;6.126;2023-04-01T16:57:13;4.67;;;4.10;;
15624;SDS011;7912;51.376;6.126;2023-04-01T17:02:43;4.60;;;4.20;;
15624;SDS011;7912;51.376;6.126;2023-04-01T17:17:19;4.23;;;3.83;;
15624;SDS011;7912;51.376;6.126;2023-04-01T17:20:11;4.77;;;4.37;;
15624;SDS011;7912;51.376;6.126;2023-04-01T17:23:50;4.87;;;4.47;;
15624;SDS011;7912;51.376;6.126;2023-04-01T17:26:41;4.83;;;4.43;;
15624;SDS011;7912;51.376;6.126;2023-04-01T17:32:54;5.17;;;4.77;;
15624;SDS011;7912;51.376;6.126;2023-04-01T17:35:26;5.23;;;4.80;;
15624;SDS011;7912;51.376;6.126;2023-04-01T17:49:51;5.80;;;5.30;;
15624;SDS011;7912;51.376;6.126;2023-04-01T17:53:11;5.33;;;4.90;;
15624;SDS011;7912;51.376;6.126;2023-04-01T18:17:04;4.20;;;3.90;;
15624;SDS011;7912;51.376;6.126;2023-04-01T18:23:02;4.00;;;3.70;;
15624;SDS011;7912;51.376;6.126;2023-04-01T18:25:43;4.33;;;3.97;;
15624;SDS011;7912;51.376;6.126;2023-04-01T18:31:07;3.67;;;3.37;;
15624;SDS011;7912;51.376;6.126;2023-04-01T18:36:52;3.80;;;3.50;;
15624;SDS011;7912;51.376;6.126;2023-04-01T18:39:40;4.13;;;3.60;;
15624;SDS011;7912;51.376;6.126;2023-04-01T18:45:43;4.03;;;3.67;;
15624;SDS011;7912;51.376;6.126;2023-04-01T18:51:25;4.03;;;3.60;;
15624;SDS011;7912;51.376;6.126;2023-04-01T18:55:20;4.33;;;3.97;;
15624;SDS011;7912;51.376;6.126;2023-04-01T18:57:50;4.47;;;4.07;;
15624;SDS011;7912;51.376;6.126;2023-04-01T19:04:12;4.30;;;3.90;;
15624;SDS011;7912;51.376;6.126;2023-04-01T19:07:01;4.23;;;3.83;;
15624;SDS011;7912;51.376;6.126;2023-04-01T19:10:00;4.53;;;4.13;;
15624;SDS011;7912;51.376;6.126;2023-04-01T19:22:03;3.30;;;2.93;;
15624;SDS011;7912;51.376;6.126;2023-04-01T19:52:20;3.53;;;3.23;;
15624;SDS011;7912;51.376;6.126;2023-04-01T19:55:22;3.73;;;3.50;;
15624;SDS011;7912;51.376;6.126;2023-04-01T20:01:16;3.63;;;3.30;;
15624;SDS011;7912;51.376;6.126;2023-04-01T20:04:13;3.10;;;2.90;;
15624;SDS011;7912;51.376;6.126;2023-04-01T20:07:27;3.60;;;3.30;;
15624;SDS011;7912;51.376;6.126;2023-04-01T20:10:38;3.23;;;3.03;;
15624;SDS011;7912;51.376;6.126;2023-04-01T20:37:58;3.40;;;3.10;;
15624;SDS011;7912;51.376;6.126;2023-04-01T20:43:23;3.63;;;2.60;;
15624;SDS011;7912;51.376;6.126;2023-04-01T20:52:17;2.90;;;2.70;;
15624;SDS011;7912;51.376;6.126;2023-04-01T21:10:29;2.30;;;2.20;;
15624;SDS011;7912;51.376;6.126;2023-04-01T21:22:18;2.33;;;2.13;;
15624;SDS011;7912;51.376;6.126;2023-04-01T21:28:29;2.13;;;2.00;;
15624;SDS011;7912;51.376;6.126;2023-04-01T21:31:25;2.40;;;2.20;;
15624;SDS011;7912;51.376;6.126;2023-04-01T21:34:28;3.07;;;2.33;;
15624;SDS011;7912;51.376;6.126;2023-04-01T21:43:36;2.50;;;2.30;;
15624;SDS011;7912;51.376;6.126;2023-04-01T22:11:18;3.10;;;2.90;;
15624;SDS011;7912;51.376;6.126;2023-04-01T22:14:50;3.20;;;3.00;;
15624;SDS011;7912;51.376;6.126;2023-04-01T22:18:17;3.40;;;3.20;;
15624;SDS011;7912;51.376;6.126;2023-04-01T22:21:09;3.07;;;2.87;;
15624;SDS011;7912;51.376;6.126;2023-04-01T22:24:04;3.10;;;2.90;;
15624;SDS011;7912;51.376;6.126;2023-04-01T22:27:06;3.10;;;2.90;;
15624;SDS011;7912;51.376;6.126;2023-04-01T22:32:46;3.10;;;2.90;;
15624;SDS011;7912;51.376;6.126;2023-04-01T22:44:08;3.20;;;3.00;;
15624;SDS011;7912;51.376;6.126;2023-04-01T22:48:10;3.53;;;3.23;;
15624;SDS011;7912;51.376;6.126;2023-04-01T22:50:25;3.70;;;3.40;;
15624;SDS011;7912;51.376;6.126;2023-04-01T22:53:22;4.00;;;3.70;;
15624;SDS011;7912;51.376;6.126;2023-04-01T22:56:06;3.60;;;3.40;;
15624;SDS011;7912;51.376;6.126;2023-04-01T22:58:45;3.90;;;3.60;;
15624;SDS011;7912;51.376;6.126;2023-04-01T23:01:27;4.30;;;4.00;;
15624;SDS011;7912;51.376;6.126;2023-04-01T23:04:03;4.00;;;3.70;;
15624;SDS011;7912;51.376;6.126;2023-04-01T23:06:34;4.33;;;3.93;;
15624;SDS011;7912;51.376;6.126;2023-04-01T23:09:31;4.30;;;4.00;;
15624;SDS011;7912;51.376;6.126;2023-04-01T23:12:03;4.20;;;3.90;;
15624;SDS011;7912;51.376;6.126;2023-04-01T23:14:41;4.10;;;3.80;;
15624;SDS011;7912;51.376;6.126;2023-04-01T23:17:34;4.30;;;4.00;;
15624;SDS011;7912;51.376;6.126;2023-04-01T23:20:23;4.00;;;3.70;;
15624;SDS011;7912;51.376;6.126;2023-04-01T23:26:33;4.20;;;3.90;;
15624;SDS011;7912;51.376;6.126;2023-04-01T23:29:24;4.30;;;4.00;;
15624;SDS011;7912;51.376;6.126;2023-04-01T23:31:58;4.20;;;3.90;;
15624;SDS011;7912;51.376;6.126;2023-04-01T23:37:05;3.90;;;3.70;;
15624;SDS011;7912;51.376;6.126;2023-04-01T23:39:43;3.80;;;3.50;;
15624;SDS011;7912;51.376;6.126;2023-04-01T23:42:24;3.80;;;3.50;;
15624;SDS011;7912;51.376;6.126;2023-04-01T23:45:04;4.03;;;3.73;;
15624;SDS011;7912;51.376;6.126;2023-04-01T23:47:40;4.00;;;3.70;;
15624;SDS011;7912;51.376;6.126;2023-04-01T23:50:20;4.37;;;4.07;;
15624;SDS011;7912;51.376;6.126;2023-04-01T23:55:42;3.90;;;3.60;;
